createdAt,value
2019-03-20T00:01:07.875Z,53.18
2019-03-20T00:03:40.174Z,53.20
2019-03-20T00:06:12.003Z,53.19
2019-03-20T00:08:43.655Z,53.22
2019-03-20T00:11:15.336Z,53.11
2019-03-20T00:13:47.261Z,53.03
2019-03-20T00:16:18.904Z,53.06
2019-03-20T00:18:51.323Z,53.14
2019-03-20T00:21:23.021Z,53.25
2019-03-20T00:23:54.644Z,53.33
2019-03-20T00:26:26.405Z,53.43
2019-03-20T00:28:58.385Z,53.53
2019-03-20T00:31:29.998Z,53.63
2019-03-20T00:34:02.721Z,53.68
2019-03-20T00:36:34.327Z,53.67
2019-03-20T00:39:08.526Z,53.61
2019-03-20T00:41:40.253Z,53.55
2019-03-20T00:44:12.081Z,53.53
2019-03-20T00:46:43.739Z,53.55
2019-03-20T00:49:16.111Z,53.64
2019-03-20T00:51:47.676Z,53.73
2019-03-20T00:54:19.248Z,53.84
2019-03-20T00:56:51.040Z,53.99
2019-03-20T00:59:22.681Z,54.06
2019-03-20T01:01:54.438Z,54.14
2019-03-20T01:04:26.015Z,54.12
2019-03-20T01:06:58.024Z,54.11
2019-03-20T01:09:29.821Z,54.10
2019-03-20T01:12:01.414Z,54.13
2019-03-20T01:14:33.266Z,54.12
2019-03-20T01:17:04.860Z,54.15
2019-03-20T01:19:36.458Z,54.11
2019-03-20T01:22:09.363Z,54.10
2019-03-20T01:24:40.946Z,54.13
2019-03-20T01:27:12.653Z,54.22
2019-03-20T01:29:44.269Z,54.32
2019-03-20T01:32:16.537Z,54.37
2019-03-20T01:34:48.203Z,54.32
2019-03-20T01:37:20.464Z,54.22
2019-03-20T01:39:52.095Z,54.09
2019-03-20T01:42:23.743Z,53.99
2019-03-20T01:44:55.435Z,53.99
2019-03-20T01:47:27.087Z,53.98
2019-03-20T01:49:58.665Z,54.04
2019-03-20T01:52:30.898Z,54.12
2019-03-20T01:55:02.644Z,54.21
2019-03-20T01:57:34.208Z,54.34
2019-03-20T02:00:06.888Z,54.48
2019-03-20T02:02:38.487Z,54.57
2019-03-20T02:05:10.362Z,54.67
2019-03-20T02:07:42.663Z,54.64
2019-03-20T02:10:14.775Z,54.62
2019-03-20T02:12:46.387Z,54.64
2019-03-20T02:15:18.464Z,54.70
2019-03-20T02:17:50.153Z,54.77
2019-03-20T02:20:23.411Z,54.82
2019-03-20T02:22:56.159Z,54.88
2019-03-20T02:25:28.266Z,54.89
2019-03-20T02:28:01.509Z,54.85
2019-03-20T02:30:33.124Z,54.81
2019-03-20T02:33:05.754Z,54.75
2019-03-20T02:35:50.578Z,54.79
2019-03-20T02:38:11.899Z,54.82
2019-03-20T02:40:43.501Z,54.87
2019-03-20T02:43:15.357Z,54.94
2019-03-20T02:45:47.027Z,54.99
2019-03-20T02:48:18.701Z,55.04
2019-03-20T02:50:51.645Z,55.02
2019-03-20T02:53:23.872Z,54.96
2019-03-20T02:55:55.486Z,54.88
2019-03-20T02:58:27.272Z,54.85
2019-03-20T03:00:58.950Z,54.85
2019-03-20T03:03:30.548Z,54.94
2019-03-20T03:06:07.160Z,55.07
2019-03-20T03:08:35.810Z,55.22
2019-03-20T03:11:07.823Z,55.34
2019-03-20T03:13:39.430Z,55.41
2019-03-20T03:16:11.006Z,55.46
2019-03-20T03:18:42.601Z,55.51
2019-03-20T03:21:14.550Z,55.52
2019-03-20T03:23:46.496Z,55.54
2019-03-20T03:26:18.707Z,55.53
2019-03-20T03:28:50.328Z,55.53
2019-03-20T03:31:22.200Z,55.57
2019-03-20T03:33:54.387Z,55.62
2019-03-20T03:36:25.980Z,55.61
2019-03-20T03:38:57.593Z,55.60
2019-03-20T03:41:30.037Z,55.54
2019-03-20T03:44:02.114Z,55.50
2019-03-20T03:46:34.181Z,55.48
2019-03-20T03:49:05.862Z,55.49
2019-03-20T03:51:37.623Z,55.48
2019-03-20T03:54:09.550Z,55.49
2019-03-20T03:56:41.930Z,55.58
2019-03-20T03:59:13.778Z,55.61
2019-03-20T04:01:45.384Z,55.63
2019-03-20T04:04:17.167Z,55.55
2019-03-20T04:06:48.833Z,55.47
2019-03-20T04:09:20.582Z,55.42
2019-03-20T04:11:52.890Z,55.38
2019-03-20T04:14:24.456Z,55.30
2019-03-20T04:16:56.048Z,55.26
2019-03-20T04:19:27.627Z,55.25
2019-03-20T04:21:59.426Z,55.31
2019-03-20T04:24:31.085Z,55.41
2019-03-20T04:27:03.353Z,55.51
2019-03-20T04:29:34.940Z,55.60
2019-03-20T04:32:07.792Z,55.70
2019-03-20T04:34:39.440Z,55.78
2019-03-20T04:37:11.307Z,55.82
2019-03-20T04:39:43.052Z,55.81
2019-03-20T04:42:14.692Z,55.80
2019-03-20T04:44:46.755Z,55.83
2019-03-20T04:47:18.402Z,55.83
2019-03-20T04:49:50.052Z,55.89
2019-03-20T04:52:21.658Z,55.98
2019-03-20T04:54:53.417Z,56.05
2019-03-20T04:57:25.034Z,56.08
2019-03-20T04:59:57.383Z,56.03
2019-03-20T05:02:29.046Z,56.04
2019-03-20T05:05:01.033Z,56.09
2019-03-20T05:07:32.658Z,56.14
2019-03-20T05:10:04.422Z,56.17
2019-03-20T05:12:36.141Z,56.18
2019-03-20T05:15:10.241Z,56.21
2019-03-20T05:17:42.148Z,56.28
2019-03-20T05:20:15.260Z,56.30
2019-03-20T05:22:46.869Z,56.33
2019-03-20T05:25:18.587Z,56.37
2019-03-20T05:27:50.192Z,56.38
2019-03-20T05:30:22.412Z,56.36
2019-03-20T05:32:54.772Z,56.31
2019-03-20T05:35:26.827Z,56.27
2019-03-20T05:37:59.012Z,56.20
2019-03-20T05:40:30.905Z,56.15
2019-03-20T05:43:02.505Z,56.14
2019-03-20T05:45:34.989Z,56.14
2019-03-20T05:48:06.597Z,56.21
2019-03-20T05:50:38.527Z,56.33
2019-03-20T05:53:10.123Z,56.44
2019-03-20T05:55:41.864Z,56.55
2019-03-20T05:58:13.461Z,56.58
2019-03-20T06:00:45.987Z,56.54
2019-03-20T06:03:17.568Z,56.54
2019-03-20T06:05:49.609Z,56.55
2019-03-20T06:08:21.605Z,56.60
2019-03-20T06:10:53.219Z,56.65
2019-03-20T06:13:24.983Z,56.71
2019-03-20T06:15:57.333Z,56.84
2019-03-20T06:18:29.282Z,57.04
2019-03-20T06:21:00.937Z,57.23
2019-03-20T06:23:32.628Z,57.41
2019-03-20T06:26:04.561Z,57.50
2019-03-20T06:28:36.162Z,57.58
2019-03-20T06:31:08.697Z,57.66
2019-03-20T06:33:41.223Z,57.72
2019-03-20T06:36:12.829Z,57.83
2019-03-20T06:38:44.744Z,57.93
2019-03-20T06:41:16.618Z,58.09
2019-03-20T06:43:48.259Z,58.10
2019-03-20T06:46:19.853Z,57.98
2019-03-20T06:48:51.949Z,57.81
2019-03-20T06:51:23.553Z,57.61
2019-03-20T06:53:55.539Z,57.41
2019-03-20T06:56:27.164Z,57.18
2019-03-20T07:00:12.157Z,56.97
2019-03-20T07:02:50.251Z,56.79
2019-03-20T07:05:59.244Z,56.63
2019-03-20T07:08:39.671Z,56.59
2019-03-20T07:11:13.206Z,56.48
2019-03-20T07:13:44.978Z,56.44
2019-03-20T07:16:16.572Z,56.45
2019-03-20T07:18:48.204Z,56.44
2019-03-20T07:21:19.802Z,56.41
2019-03-20T07:23:51.965Z,56.37
2019-03-20T07:26:23.820Z,56.27
2019-03-20T07:28:55.494Z,56.24
2019-03-20T07:31:27.313Z,56.21
2019-03-20T07:33:59.607Z,56.17
2019-03-20T07:36:32.105Z,56.16
2019-03-20T07:39:05.500Z,56.13
2019-03-20T07:41:37.127Z,56.09
2019-03-20T07:44:09.076Z,56.00
2019-03-20T07:46:40.664Z,55.92
2019-03-20T07:49:12.323Z,55.92
2019-03-20T07:51:43.905Z,55.91
2019-03-20T07:54:16.239Z,55.92
2019-03-20T07:56:47.868Z,55.90
2019-03-20T07:59:19.818Z,55.78
2019-03-20T08:01:51.517Z,55.63
2019-03-20T08:04:23.365Z,55.62
2019-03-20T08:06:55.034Z,55.62
2019-03-20T08:09:27.531Z,55.55
2019-03-20T08:11:59.225Z,55.37
2019-03-20T08:14:30.969Z,55.34
2019-03-20T08:17:02.627Z,55.34
2019-03-20T08:19:34.358Z,55.21
2019-03-20T08:22:06.393Z,55.29
2019-03-20T08:24:38.056Z,55.28
2019-03-20T08:27:10.351Z,55.27
2019-03-20T08:29:42.005Z,55.10
2019-03-20T08:32:13.863Z,54.76
2019-03-20T08:34:46.131Z,54.83
2019-03-20T08:37:17.778Z,54.89
2019-03-20T08:39:49.405Z,54.79
2019-03-20T08:42:24.697Z,54.75
2019-03-20T08:44:56.384Z,54.80
2019-03-20T08:47:27.974Z,54.77
2019-03-20T08:50:00.368Z,54.66
2019-03-20T08:52:32.085Z,54.62
2019-03-20T08:55:03.748Z,54.57
2019-03-20T08:57:35.760Z,54.49
2019-03-20T09:00:11.890Z,54.39
2019-03-20T09:02:43.863Z,54.34
2019-03-20T09:05:15.831Z,54.18
2019-03-20T09:07:48.307Z,54.01
2019-03-20T09:10:20.985Z,53.83
2019-03-20T09:12:52.692Z,53.67
2019-03-20T09:15:24.369Z,53.67
2019-03-20T09:17:55.976Z,52.69
2019-03-20T09:20:27.665Z,52.84
2019-03-20T09:22:59.598Z,52.73
2019-03-20T09:25:31.262Z,52.68
2019-03-20T09:28:03.238Z,52.51
2019-03-20T09:30:34.842Z,52.52
2019-03-20T09:33:07.177Z,52.47
2019-03-20T09:35:38.749Z,52.46
2019-03-20T09:38:11.686Z,52.42
2019-03-20T09:40:43.391Z,52.17
2019-03-20T09:43:15.229Z,51.92
2019-03-20T09:45:47.241Z,51.67
2019-03-20T09:48:18.968Z,51.40
2019-03-20T09:50:50.598Z,51.24
2019-03-20T09:53:22.275Z,51.20
2019-03-20T09:55:53.874Z,51.03
2019-03-20T09:58:25.669Z,50.92
2019-03-20T10:00:57.313Z,50.90
2019-03-20T10:03:29.628Z,50.66
2019-03-20T10:06:01.319Z,50.69
2019-03-20T10:08:33.003Z,50.51
2019-03-20T10:11:05.680Z,50.12
2019-03-20T10:13:37.316Z,50.08
2019-03-20T10:16:09.271Z,50.07
2019-03-20T10:18:41.144Z,50.00
2019-03-20T10:21:12.757Z,50.00
2019-03-20T10:23:44.429Z,49.88
2019-03-20T10:26:16.209Z,49.79
2019-03-20T10:28:47.907Z,49.65
2019-03-20T10:31:19.804Z,49.75
2019-03-20T10:33:52.305Z,49.71
2019-03-20T10:36:24.262Z,49.71
2019-03-20T10:39:05.954Z,49.38
2019-03-20T10:41:29.894Z,49.34
2019-03-20T10:44:01.961Z,49.27
2019-03-20T10:46:33.956Z,49.13
2019-03-20T10:49:05.591Z,48.88
2019-03-20T10:51:37.242Z,48.61
2019-03-20T10:54:08.873Z,48.42
2019-03-20T10:56:40.528Z,48.14
2019-03-20T10:59:12.474Z,47.62
2019-03-20T11:01:44.225Z,47.72
2019-03-20T11:04:16.029Z,47.63
2019-03-20T11:06:47.975Z,47.55
2019-03-20T11:09:20.308Z,47.44
2019-03-20T11:11:51.947Z,47.08
2019-03-20T11:14:23.550Z,47.21
2019-03-20T11:16:55.326Z,47.08
2019-03-20T11:19:27.125Z,46.65
2019-03-20T11:21:58.792Z,46.66
2019-03-20T11:24:30.489Z,46.37
2019-03-20T11:27:02.460Z,46.30
2019-03-20T11:29:34.495Z,46.30
2019-03-20T11:32:06.287Z,46.29
2019-03-20T11:34:38.827Z,46.12
2019-03-20T11:37:10.764Z,45.99
2019-03-20T11:39:42.413Z,45.93
2019-03-20T11:42:14.247Z,45.94
2019-03-20T11:44:45.910Z,45.76
2019-03-20T11:47:17.638Z,45.64
2019-03-20T11:49:49.312Z,45.43
2019-03-20T11:52:20.928Z,45.17
2019-03-20T11:54:52.553Z,45.22
2019-03-20T11:57:24.258Z,44.93
2019-03-20T11:59:56.175Z,45.07
2019-03-20T12:02:28.659Z,44.90
2019-03-20T12:05:00.661Z,44.71
2019-03-20T12:07:32.266Z,44.50
2019-03-20T12:10:04.118Z,44.58
2019-03-20T12:12:36.133Z,44.41
2019-03-20T12:15:08.639Z,44.36
2019-03-20T12:17:40.391Z,44.22
2019-03-20T12:20:16.933Z,44.09
2019-03-20T12:22:48.859Z,43.80
2019-03-20T12:25:26.538Z,43.95
2019-03-20T12:27:58.192Z,43.63
2019-03-20T12:30:30.628Z,43.71
2019-03-20T12:33:03.459Z,43.70
2019-03-20T12:35:35.651Z,43.47
2019-03-20T12:38:14.201Z,43.46
2019-03-20T12:40:41.459Z,43.46
2019-03-20T12:43:13.352Z,43.33
2019-03-20T12:45:46.981Z,43.32
2019-03-20T12:48:18.804Z,42.70
2019-03-20T12:50:50.542Z,42.87
2019-03-20T12:53:23.293Z,42.60
2019-03-20T12:55:56.925Z,42.78
2019-03-20T12:58:28.837Z,42.52
2019-03-20T13:01:00.691Z,42.04
2019-03-20T13:03:32.414Z,42.33
2019-03-20T13:06:04.194Z,42.36
2019-03-20T13:08:35.860Z,42.19
2019-03-20T13:11:07.640Z,42.22
2019-03-20T13:13:39.288Z,41.99
2019-03-20T13:16:10.945Z,42.04
2019-03-20T13:18:42.712Z,41.93
2019-03-20T13:21:14.832Z,41.69
2019-03-20T13:23:46.473Z,41.75
2019-03-20T13:26:18.135Z,41.74
2019-03-20T13:28:50.086Z,41.64
2019-03-20T13:31:23.424Z,41.36
2019-03-20T13:34:06.938Z,41.43
2019-03-20T13:36:38.729Z,41.42
2019-03-20T13:39:10.531Z,41.04
2019-03-20T13:41:42.493Z,40.93
2019-03-20T13:44:14.445Z,40.96
2019-03-20T13:46:46.135Z,41.12
2019-03-20T13:49:18.031Z,41.09
2019-03-20T13:51:49.777Z,40.77
2019-03-20T13:54:21.506Z,40.36
2019-03-20T13:56:53.166Z,40.46
2019-03-20T13:59:24.939Z,40.39
2019-03-20T14:01:56.949Z,40.44
2019-03-20T14:04:28.615Z,40.21
2019-03-20T14:07:00.429Z,40.31
2019-03-20T14:09:32.438Z,40.01
2019-03-20T14:12:04.576Z,40.14
2019-03-20T14:14:36.266Z,39.77
2019-03-20T14:17:08.031Z,39.80
2019-03-20T14:19:39.836Z,39.78
2019-03-20T14:22:11.596Z,39.73
2019-03-20T14:24:43.255Z,39.52
2019-03-20T14:27:14.920Z,39.63
2019-03-20T14:29:46.638Z,39.63
2019-03-20T14:32:18.271Z,39.59
2019-03-20T14:34:50.186Z,39.18
2019-03-20T14:37:22.131Z,39.02
2019-03-20T14:39:53.972Z,39.09
2019-03-20T14:42:25.618Z,38.80
2019-03-20T14:44:57.570Z,38.77
2019-03-20T14:47:29.253Z,38.81
2019-03-20T14:50:01.027Z,38.74
2019-03-20T14:52:33.012Z,38.74
2019-03-20T14:55:05.365Z,38.76
2019-03-20T14:57:37.058Z,38.25
2019-03-20T15:00:12.203Z,38.42
2019-03-20T15:02:43.970Z,38.47
2019-03-20T15:05:15.733Z,38.44
2019-03-20T15:07:47.482Z,38.34
2019-03-20T15:10:21.276Z,38.45
2019-03-20T15:12:53.112Z,38.37
2019-03-20T15:15:40.727Z,38.28
2019-03-20T15:18:13.339Z,38.33
2019-03-20T15:20:45.258Z,38.17
2019-03-20T15:23:16.961Z,38.15
2019-03-20T15:25:48.699Z,38.15
2019-03-20T15:28:20.442Z,37.99
2019-03-20T15:30:52.138Z,38.10
2019-03-20T15:33:28.733Z,38.03
2019-03-20T15:36:00.419Z,37.80
2019-03-20T15:38:32.078Z,38.01
2019-03-20T15:41:04.768Z,38.02
2019-03-20T15:43:36.331Z,37.82
2019-03-20T15:46:08.002Z,37.89
2019-03-20T15:48:39.783Z,37.90
2019-03-20T15:51:11.366Z,37.71
2019-03-20T15:53:43.135Z,37.75
2019-03-20T15:56:14.918Z,37.78
2019-03-20T15:58:46.613Z,37.77
2019-03-20T16:01:18.408Z,37.69
2019-03-20T16:03:50.073Z,37.59
2019-03-20T16:06:21.838Z,37.64
2019-03-20T16:08:55.963Z,37.57
2019-03-20T16:11:27.178Z,37.61
2019-03-20T16:13:59.361Z,37.58
2019-03-20T16:16:31.017Z,37.46
2019-03-20T16:19:02.763Z,37.49
2019-03-20T16:21:35.014Z,37.48
2019-03-20T16:24:06.775Z,37.36
2019-03-20T16:26:38.447Z,37.40
2019-03-20T16:29:10.301Z,37.43
2019-03-20T16:31:42.201Z,37.47
2019-03-20T16:34:15.016Z,37.44
2019-03-20T16:36:46.691Z,37.39
2019-03-20T16:39:18.495Z,37.29
2019-03-20T16:41:50.110Z,37.31
2019-03-20T16:44:22.268Z,37.32
2019-03-20T16:46:54.145Z,37.36
2019-03-20T16:49:25.776Z,37.37
2019-03-20T16:51:57.507Z,37.38
2019-03-20T16:54:29.135Z,37.41
2019-03-20T16:57:01.007Z,37.42
2019-03-20T16:59:33.007Z,37.43
2019-03-20T17:02:04.706Z,37.38
2019-03-20T17:04:36.499Z,37.42
2019-03-20T17:07:08.425Z,37.42
2019-03-20T17:09:40.135Z,37.38
2019-03-20T17:12:11.814Z,37.38
2019-03-20T17:14:43.687Z,37.38
2019-03-20T17:17:15.311Z,37.41
2019-03-20T17:19:47.249Z,37.41
2019-03-20T17:22:18.930Z,37.38
2019-03-20T17:24:50.697Z,37.41
2019-03-20T17:27:22.495Z,37.43
2019-03-20T17:29:54.226Z,37.41
2019-03-20T17:32:25.909Z,37.43
2019-03-20T17:34:58.174Z,37.40
2019-03-20T17:37:29.892Z,37.39
2019-03-20T17:40:01.638Z,37.42
2019-03-20T17:42:33.368Z,37.43
2019-03-20T17:45:05.886Z,37.47
2019-03-20T17:47:37.723Z,37.56
2019-03-20T17:50:13.554Z,37.66
2019-03-20T17:52:45.372Z,37.77
2019-03-20T17:55:20.107Z,37.92
2019-03-20T17:57:51.779Z,38.13
2019-03-20T18:00:36.352Z,38.43
2019-03-20T18:03:08.924Z,38.67
2019-03-20T18:05:40.820Z,38.91
2019-03-20T18:08:12.692Z,39.11
2019-03-20T18:10:44.671Z,39.23
2019-03-20T18:13:16.477Z,39.37
2019-03-20T18:15:48.110Z,39.54
2019-03-20T18:18:20.069Z,39.67
2019-03-20T18:20:51.903Z,39.80
2019-03-20T18:23:23.761Z,39.92
2019-03-20T18:25:55.408Z,40.03
2019-03-20T18:28:27.159Z,40.13
2019-03-20T18:30:58.994Z,40.19
2019-03-20T18:33:31.279Z,40.30
2019-03-20T18:36:02.993Z,40.38
2019-03-20T18:38:35.161Z,40.46
2019-03-20T18:41:07.182Z,40.54
2019-03-20T18:43:38.910Z,40.60
2019-03-20T18:46:10.636Z,40.72
2019-03-20T18:48:43.003Z,40.83
2019-03-20T18:51:14.667Z,40.87
2019-03-20T18:53:47.748Z,40.88
2019-03-20T18:56:19.625Z,40.92
2019-03-20T18:58:51.622Z,40.98
2019-03-20T19:01:23.372Z,41.08
2019-03-20T19:03:55.771Z,41.27
2019-03-20T19:06:28.577Z,41.56
2019-03-20T19:09:00.327Z,41.76
2019-03-20T19:11:32.315Z,41.87
2019-03-20T19:14:04.153Z,41.93
2019-03-20T19:16:35.820Z,41.94
2019-03-20T19:19:08.174Z,41.89
2019-03-20T19:21:39.986Z,41.87
2019-03-20T19:24:11.749Z,41.86
2019-03-20T19:26:43.545Z,41.87
2019-03-20T19:29:15.283Z,41.85
2019-03-20T19:31:47.058Z,41.83
2019-03-20T19:34:19.740Z,41.83
2019-03-20T19:36:51.435Z,41.87
2019-03-20T19:39:23.288Z,41.95
2019-03-20T19:41:55.139Z,42.13
2019-03-20T19:44:26.923Z,42.27
2019-03-20T19:46:58.698Z,42.43
2019-03-20T19:49:31.156Z,42.57
2019-03-20T19:52:02.877Z,42.73
2019-03-20T19:54:34.548Z,42.89
2019-03-20T19:57:06.202Z,43.07
2019-03-20T19:59:38.469Z,43.22
2019-03-20T20:02:10.482Z,43.38
2019-03-20T20:04:42.495Z,43.53
2019-03-20T20:07:15.298Z,43.69
2019-03-20T20:09:46.997Z,43.84
2019-03-20T20:12:19.315Z,44.02
2019-03-20T20:14:51.144Z,44.08
2019-03-20T20:17:22.939Z,44.19
2019-03-20T20:19:54.616Z,44.23
2019-03-20T20:22:27.296Z,44.26
2019-03-20T20:24:58.928Z,44.30
2019-03-20T20:27:31.001Z,44.31
2019-03-20T20:30:02.662Z,44.29
2019-03-20T20:32:34.515Z,44.16
2019-03-20T20:35:06.700Z,44.08
2019-03-20T20:37:39.183Z,43.91
2019-03-20T20:40:15.144Z,43.77
2019-03-20T20:42:46.871Z,43.67
2019-03-20T20:45:18.639Z,43.60
2019-03-20T20:47:50.418Z,43.56
2019-03-20T20:50:22.200Z,43.60
2019-03-20T20:52:54.519Z,43.67
2019-03-20T20:55:26.371Z,43.72
2019-03-20T20:57:58.064Z,43.77
2019-03-20T21:00:29.846Z,43.75
2019-03-20T21:03:01.641Z,43.70
2019-03-20T21:05:33.268Z,43.63
2019-03-20T21:08:06.162Z,43.62
2019-03-20T21:10:37.840Z,43.62
2019-03-20T21:13:09.646Z,43.65
2019-03-20T21:15:54.622Z,43.68
2019-03-20T21:19:18.127Z,43.70
2019-03-20T21:22:43.816Z,43.75
2019-03-20T21:25:22.124Z,43.73
2019-03-20T21:28:58.045Z,43.74
2019-03-20T21:32:07.418Z,43.78
2019-03-20T21:35:38.263Z,43.81
2019-03-20T21:38:08.573Z,43.81
2019-03-20T21:41:36.915Z,43.77
2019-03-20T21:45:04.582Z,43.78
2019-03-20T21:47:34.737Z,43.75
2019-03-20T21:51:02.507Z,43.76
2019-03-20T21:54:33.936Z,43.82
2019-03-20T21:57:52.046Z,43.85
2019-03-20T22:01:46.711Z,43.91
2019-03-20T22:04:19.263Z,43.96
2019-03-20T22:07:11.088Z,43.96
2019-03-20T22:11:08.491Z,44.04
2019-03-20T22:13:49.220Z,44.17
2019-03-20T22:17:27.600Z,44.28
2019-03-20T22:20:30.035Z,44.44
2019-03-20T22:23:49.307Z,44.55
2019-03-20T22:27:29.519Z,44.67
2019-03-20T22:30:02.139Z,44.80
2019-03-20T22:33:28.482Z,44.95
2019-03-20T22:36:22.817Z,45.15
2019-03-20T22:40:11.330Z,45.32
2019-03-20T22:42:56.662Z,45.49
2019-03-20T22:46:32.951Z,45.67
2019-03-20T22:50:01.338Z,45.84
2019-03-20T22:53:21.404Z,45.92
2019-03-20T22:56:21.175Z,46.00
2019-03-20T22:58:54.281Z,46.08
2019-03-20T23:02:12.110Z,46.11
2019-03-20T23:04:52.310Z,46.19
2019-03-20T23:07:24.883Z,46.21
2019-03-20T23:09:57.919Z,46.34
2019-03-20T23:12:30.371Z,46.45
2019-03-20T23:15:03.009Z,46.52
2019-03-20T23:17:35.512Z,46.60
2019-03-20T23:20:11.198Z,46.64
2019-03-20T23:22:45.005Z,46.67
2019-03-20T23:25:17.825Z,46.71
2019-03-20T23:27:50.708Z,46.80
2019-03-20T23:30:26.259Z,46.80
2019-03-20T23:32:58.773Z,46.81
2019-03-20T23:35:31.595Z,46.82
2019-03-20T23:38:04.106Z,46.82
2019-03-20T23:40:36.683Z,46.85
2019-03-20T23:43:09.939Z,46.87
2019-03-20T23:45:42.433Z,46.90
2019-03-20T23:48:46.122Z,46.87
2019-03-20T23:51:20.555Z,46.82
2019-03-20T23:53:55.634Z,46.68
2019-03-20T23:56:30.543Z,46.62
2019-03-20T23:59:03.387Z,46.58
